Kezdőlap
METAR-TAF:

METAR-TAF

Repülőterek :

Orr Regional Airport

Orr, Minnesota, Amerikai Egyesült Államok

földrajzi szélesség: 48-01N, földrajzi hosszúság: 092-52W, magasság: 397 m

Jelenlegi meteorológiai megfigyelések

A jelentés 27 perccel ezelõtt készült, 14:53 UTC
Szélcsend
Hőmérséklet 13°C
Páratartalom 88%
Légköri nyomás 1011 hPa
Látótávolság: 16.1 km

METAR: KORB 201453Z AUTO 00000KT 10SM 13/11 A2984 RMK AO2

Idő: 10:20 (15:20 UTC)


TAF: hiányzik

Meteorológiai megfigyelések és előrejelzések több, mint 4000 repülőtéren (METAR és TAF jelentéseket).

A térképen piros és sárga pontok jelzik az elérhető meteorológiai állomásokat.

Mozgassa az egeret a pont fölött, hogy megjelenjen az állomás neve.

Azután kattintson az időjárási megfigyelések és előrejelzések megtekintéséhez.

A térkép megváltoztatása: kattintson a fekete keresztel jelölt zöld gombra ráközelítéshez, a vonallal jelölt zöld gombra távolításhoz, vagy a zöld nyilakra a szomszédos térképek eléréséhez.


METAR-TAF: